Time;durP1;ratioP1;P1;durP2;ratioP2;P2;SDS_P1;SDS_P2;PMS_P1;PMS_P2;Temp;Humidity;BMP_temperature;BMP_pressure;BME280_temperature;BME280_humidity;BME280_pressure;Samples;Min_cycle;Max_cycle;Signal;HPM_P1;HPM_P2
2022/03/28 00:01:25;;;;;;;;;;;;;;;10.49;45.01;101850.53;5035081;28;19913;-76
2022/03/28 00:04:09;;;;;;;;;;;;;;;10.40;45.29;101855.00;5035005;28;19913;-76
2022/03/28 00:06:56;;;;;;;;;;;;;;;10.36;45.12;101847.69;5023384;28;19913;-76
2022/03/28 00:09:40;;;;;;;;;;;;;;;10.29;45.47;101853.44;5034409;28;19913;-75
2022/03/28 00:12:25;;;;;;;;;;;;;;;10.29;45.47;101848.00;5034769;28;19917;-75
2022/03/28 00:15:10;;;;;;;;;;;;;;;10.40;45.47;101838.69;5051483;28;20380;-77
2022/03/28 00:17:54;;;;;;;;;;;;;;;10.23;45.65;101833.66;5036040;28;19912;-77
2022/03/28 00:20:39;;;;;;;;;;;;;;;10.31;45.81;101834.16;5008290;28;20283;-77
2022/03/28 00:23:24;;;;;;;;;;;;;;;10.34;45.31;101830.84;5022418;28;19913;-77
2022/03/28 00:26:09;;;;;;;;;;;;;;;10.26;45.40;101833.06;5016915;28;20376;-77
2022/03/28 00:28:53;;;;;;;;;;;;;;;10.12;45.82;101829.38;5017546;28;19918;-78
2022/03/28 00:31:38;;;;;;;;;;;;;;;10.26;45.03;101832.25;5017083;28;19917;-77
2022/03/28 00:34:23;;;;;;;;;;;;;;;9.98;45.33;101828.41;5016187;28;19913;-78
2022/03/28 00:37:07;;;;;;;;;;;;;;;9.44;47.26;101833.94;5032220;28;19918;-76
2022/03/28 00:39:52;;;;;;;;;;;;;;;9.15;48.04;101828.34;5017709;28;20313;-76
2022/03/28 00:42:37;;;;;;;;;;;;;;;9.37;47.47;101828.81;5028807;28;19913;-75
2022/03/28 00:45:21;;;;;;;;;;;;;;;9.15;47.97;101827.53;5027916;28;19913;-76
2022/03/28 00:48:06;;;;;;;;;;;;;;;9.60;46.97;101824.56;5046369;28;19914;-78
2022/03/28 00:50:52;;;;;;;;;;;;;;;9.90;46.21;101828.19;5072629;28;19916;-78
2022/03/28 00:53:38;;;;;;;;;;;;;;;9.87;46.18;101813.25;5052594;28;19913;-78
2022/03/28 00:56:22;;;;;;;;;;;;;;;9.94;45.75;101819.19;5061317;28;19913;-78
2022/03/28 00:59:06;;;;;;;;;;;;;;;10.03;45.38;101812.06;5043225;28;19917;-77
2022/03/28 01:01:51;;;;;;;;;;;;;;;9.99;45.71;101805.56;5033575;28;19912;-75
2022/03/28 01:04:37;;;;;;;;;;;;;;;9.68;45.97;101809.59;5055579;28;19913;-76
2022/03/28 01:07:22;;;;;;;;;;;;;;;9.68;46.17;101810.41;5034304;28;20388;-74
2022/03/28 01:10:09;;;;;;;;;;;;;;;9.97;45.35;101805.03;5033493;28;19917;-74
2022/03/28 01:12:54;;;;;;;;;;;;;;;9.85;45.41;101813.53;5033506;28;19917;-75
2022/03/28 01:15:38;;;;;;;;;;;;;;;9.70;46.00;101807.44;5033557;28;19913;-74
2022/03/28 01:18:23;;;;;;;;;;;;;;;9.74;45.85;101803.88;5013702;28;20292;-74
2022/03/28 01:21:07;;;;;;;;;;;;;;;9.71;45.83;101806.31;5016065;28;19913;-74
2022/03/28 01:23:52;;;;;;;;;;;;;;;9.56;46.65;101800.97;5033995;28;19913;-74
2022/03/28 01:26:36;;;;;;;;;;;;;;;9.64;46.40;101793.06;5033124;28;19917;-75
2022/03/28 01:29:21;;;;;;;;;;;;;;;9.65;46.60;101791.97;5033024;28;19913;-74
2022/03/28 01:32:05;;;;;;;;;;;;;;;9.45;46.62;101789.38;5032878;28;19917;-74
2022/03/28 01:34:50;;;;;;;;;;;;;;;9.29;47.49;101785.97;5032554;28;19913;-75
2022/03/28 01:37:35;;;;;;;;;;;;;;;9.24;47.55;101786.00;5032926;28;20324;-74
2022/03/28 01:40:20;;;;;;;;;;;;;;;9.34;46.88;101782.41;5032424;28;19913;-74
2022/03/28 01:43:05;;;;;;;;;;;;;;;9.36;48.10;101785.63;5025944;28;19921;-75
2022/03/28 01:45:50;;;;;;;;;;;;;;;9.29;48.11;101779.72;5033083;28;19913;-74
2022/03/28 01:48:35;;;;;;;;;;;;;;;9.22;48.95;101774.59;5032838;28;19913;-74
2022/03/28 01:51:19;;;;;;;;;;;;;;;9.44;48.04;101783.16;5032880;28;19917;-74
2022/03/28 01:54:04;;;;;;;;;;;;;;;9.28;48.64;101781.63;5018648;28;20284;-75
2022/03/28 01:56:48;;;;;;;;;;;;;;;9.30;49.30;101784.03;5032281;28;19920;-74
2022/03/28 01:59:33;;;;;;;;;;;;;;;9.25;49.34;101778.63;5048483;28;19913;-74
2022/03/28 02:02:17;;;;;;;;;;;;;;;9.25;49.04;101774.03;5032507;28;19920;-74
2022/03/28 02:05:02;;;;;;;;;;;;;;;8.89;49.70;101776.09;5032725;28;19913;-74
2022/03/28 02:07:48;;;;;;;;;;;;;;;8.87;49.33;101770.16;5032642;28;19943;-74
2022/03/28 02:10:32;;;;;;;;;;;;;;;8.28;51.27;101763.81;5046861;28;19929;-74
2022/03/28 02:13:16;;;;;;;;;;;;;;;7.77;53.04;101752.22;5032313;28;19941;-74
2022/03/28 02:16:01;;;;;;;;;;;;;;;7.34;54.32;101757.03;5032831;28;20260;-74
2022/03/28 02:18:45;;;;;;;;;;;;;;;7.60;54.01;101761.41;5032429;28;19913;-75
2022/03/28 02:21:30;;;;;;;;;;;;;;;7.54;54.18;101761.66;5032502;28;19912;-74
2022/03/28 02:24:14;;;;;;;;;;;;;;;7.44;54.14;101765.16;5032125;28;19913;-75
2022/03/28 02:26:59;;;;;;;;;;;;;;;7.18;55.09;101760.78;5032215;28;19913;-74
2022/03/28 02:29:43;;;;;;;;;;;;;;;7.61;53.93;101764.94;5032062;28;19917;-74
2022/03/28 02:32:28;;;;;;;;;;;;;;;7.84;53.03;101763.56;5018296;28;20303;-74
2022/03/28 02:35:12;;;;;;;;;;;;;;;7.32;54.20;101749.19;5040225;22;19925;-74
2022/03/28 02:38:01;;;;;;;;;;;;;;;6.97;55.55;101759.09;5020285;28;20380;-74
2022/03/28 02:40:46;;;;;;;;;;;;;;;7.24;54.59;101751.59;5038020;28;19913;-74
2022/03/28 02:43:31;;;;;;;;;;;;;;;6.79;55.89;101747.69;5032524;28;19913;-74
2022/03/28 02:46:15;;;;;;;;;;;;;;;7.14;54.26;101748.88;5034763;28;19913;-74
2022/03/28 02:48:59;;;;;;;;;;;;;;;7.26;53.80;101746.75;5036272;28;19912;-74
2022/03/28 02:51:44;;;;;;;;;;;;;;;7.01;54.62;101744.75;5036439;28;19917;-74
2022/03/28 02:54:29;;;;;;;;;;;;;;;7.03;54.45;101744.50;5036799;28;19913;-74
2022/03/28 02:57:14;;;;;;;;;;;;;;;7.15;53.92;101742.38;5039894;28;19912;-74
2022/03/28 02:59:58;;;;;;;;;;;;;;;6.95;54.69;101743.16;5036477;28;19916;-74
2022/03/28 03:02:44;;;;;;;;;;;;;;;6.90;54.75;101736.91;5036561;28;19913;-74
2022/03/28 03:05:29;;;;;;;;;;;;;;;7.13;54.10;101739.13;5036444;28;19917;-74
2022/03/28 03:08:13;;;;;;;;;;;;;;;7.42;52.65;101728.63;5036934;28;19913;-74
2022/03/28 03:10:58;;;;;;;;;;;;;;;7.41;52.73;101730.53;5036159;28;19917;-74
2022/03/28 03:13:42;;;;;;;;;;;;;;;7.47;52.14;101729.44;5036285;28;20372;-73
2022/03/28 03:16:27;;;;;;;;;;;;;;;7.63;51.44;101728.38;5036038;28;19913;-74
2022/03/28 03:19:11;;;;;;;;;;;;;;;7.46;51.89;101729.72;5036078;28;19912;-74
2022/03/28 03:21:55;;;;;;;;;;;;;;;7.36;52.46;101730.53;5027714;28;20596;-74
2022/03/28 03:24:40;;;;;;;;;;;;;;;7.60;51.55;101731.63;5036344;28;19913;-74
2022/03/28 03:27:25;;;;;;;;;;;;;;;7.78;51.46;101724.84;5035788;28;19913;-74
2022/03/28 03:30:10;;;;;;;;;;;;;;;7.78;51.56;101719.44;5035844;28;19913;-74
2022/03/28 03:32:54;;;;;;;;;;;;;;;7.77;51.37;101725.13;5035692;28;19917;-74
2022/03/28 03:35:40;;;;;;;;;;;;;;;7.63;51.92;101724.84;5021015;28;19917;-74
2022/03/28 03:38:24;;;;;;;;;;;;;;;7.90;51.82;101724.56;5035637;28;19912;-74
2022/03/28 03:41:09;;;;;;;;;;;;;;;7.88;51.81;101726.72;5035711;28;19917;-74
2022/03/28 03:43:53;;;;;;;;;;;;;;;8.18;51.25;101723.97;5035749;28;19912;-74
2022/03/28 03:46:38;;;;;;;;;;;;;;;8.04;51.27;101726.44;5035493;28;19913;-74
2022/03/28 03:49:22;;;;;;;;;;;;;;;8.07;51.27;101720.50;5027245;28;20310;-74
2022/03/28 03:52:07;;;;;;;;;;;;;;;7.99;51.38;101722.94;5040971;28;20364;-74
2022/03/28 03:54:51;;;;;;;;;;;;;;;7.81;51.75;101713.50;5035281;28;19913;-74
2022/03/28 03:57:36;;;;;;;;;;;;;;;7.82;51.61;101717.81;5034573;28;19913;-74
2022/03/28 04:00:22;;;;;;;;;;;;;;;7.93;51.48;101713.19;5035320;28;19913;-74
2022/03/28 04:03:07;;;;;;;;;;;;;;;7.81;52.01;101728.91;5040749;28;19913;-74
2022/03/28 04:05:51;;;;;;;;;;;;;;;7.94;51.02;101725.66;5026687;28;19913;-74
2022/03/28 04:08:36;;;;;;;;;;;;;;;8.05;50.66;101729.97;5035193;28;19913;-74
2022/03/28 04:11:21;;;;;;;;;;;;;;;8.10;50.16;101724.56;5035065;28;19917;-74
2022/03/28 04:14:06;;;;;;;;;;;;;;;8.07;50.36;101722.41;5034862;28;19913;-74
2022/03/28 04:16:50;;;;;;;;;;;;;;;8.02;50.26;101722.41;5034865;28;19913;-74
2022/03/28 04:19:34;;;;;;;;;;;;;;;7.91;50.30;101727.03;5034956;28;19920;-74
2022/03/28 04:22:19;;;;;;;;;;;;;;;8.02;49.87;101728.63;5034941;28;19913;-74
2022/03/28 04:25:03;;;;;;;;;;;;;;;8.02;50.17;101733.25;5040470;28;20284;-74
2022/03/28 04:27:48;;;;;;;;;;;;;;;8.03;50.52;101729.41;5034817;28;19913;-74
2022/03/28 04:30:33;;;;;;;;;;;;;;;7.95;50.59;101728.09;5034780;28;19913;-74
2022/03/28 04:33:18;;;;;;;;;;;;;;;7.96;50.61;101734.31;5034706;28;19917;-74
2022/03/28 04:36:03;;;;;;;;;;;;;;;7.87;50.85;101736.78;5026296;28;19913;-74
2022/03/28 04:38:48;;;;;;;;;;;;;;;8.02;50.67;101739.47;5034348;28;19913;-74
2022/03/28 04:41:32;;;;;;;;;;;;;;;7.87;50.89;101741.38;5026251;28;19913;-74
2022/03/28 04:44:17;;;;;;;;;;;;;;;7.67;51.44;101734.88;5040275;28;20372;-74
2022/03/28 04:47:01;;;;;;;;;;;;;;;7.73;50.94;101730.25;5034434;28;19924;-74
2022/03/28 04:49:46;;;;;;;;;;;;;;;7.76;51.00;101728.91;5034478;28;19913;-74
2022/03/28 04:52:31;;;;;;;;;;;;;;;7.76;50.52;101734.34;5033924;28;20299;-74
2022/03/28 04:55:15;;;;;;;;;;;;;;;7.67;50.80;101732.16;5034244;28;19913;-74
2022/03/28 04:58:00;;;;;;;;;;;;;;;7.87;50.47;101734.06;5035639;28;19913;-74
2022/03/28 05:00:44;;;;;;;;;;;;;;;7.89;50.07;101731.88;5034277;28;20372;-74
2022/03/28 05:03:29;;;;;;;;;;;;;;;7.83;50.13;101737.56;5034151;28;20292;-74
2022/03/28 05:06:13;;;;;;;;;;;;;;;7.87;50.01;101733.25;5034136;28;19921;-74
2022/03/28 05:08:58;;;;;;;;;;;;;;;7.87;49.99;101742.19;5032973;28;19913;-74
2022/03/28 05:11:42;;;;;;;;;;;;;;;7.83;49.67;101741.09;5033888;28;20291;-74
2022/03/28 05:14:27;;;;;;;;;;;;;;;7.94;49.66;101736.47;5033961;28;19913;-74
2022/03/28 05:17:11;;;;;;;;;;;;;;;8.07;49.56;101746.78;5033615;28;19944;-74
2022/03/28 05:19:56;;;;;;;;;;;;;;;7.91;49.68;101745.16;5033688;28;20361;-74
2022/03/28 05:22:41;;;;;;;;;;;;;;;7.91;49.87;101745.16;5039411;28;19913;-74
2022/03/28 05:25:26;;;;;;;;;;;;;;;7.89;49.67;101725.66;5033698;28;19913;-74
2022/03/28 05:28:10;;;;;;;;;;;;;;;8.27;48.98;101741.31;5020544;28;19913;-74
2022/03/28 05:30:57;;;;;;;;;;;;;;;8.31;48.56;101752.44;5033504;28;19913;-74
2022/03/28 05:33:41;;;;;;;;;;;;;;;8.41;48.17;101747.00;5037904;28;19916;-74
2022/03/28 05:36:25;;;;;;;;;;;;;;;8.69;47.47;101757.19;5033433;28;19913;-74
2022/03/28 05:39:10;;;;;;;;;;;;;;;8.68;47.40;101752.88;5039072;28;19913;-74
2022/03/28 05:41:54;;;;;;;;;;;;;;;8.88;47.82;101755.53;5039123;28;19913;-74
2022/03/28 05:44:40;;;;;;;;;;;;;;;8.85;46.98;101757.94;5033250;28;19916;-74
2022/03/28 05:47:25;;;;;;;;;;;;;;;9.25;46.60;101756.94;5036154;28;20292;-74
2022/03/28 05:50:10;;;;;;;;;;;;;;;9.47;45.80;101753.81;5033486;28;19912;-74
2022/03/28 05:52:55;;;;;;;;;;;;;;;9.63;45.70;101755.31;5033047;28;19917;-74
2022/03/28 05:55:40;;;;;;;;;;;;;;;9.99;45.23;101753.13;5024721;28;19917;-74
2022/03/28 05:58:25;;;;;;;;;;;;;;;10.25;44.89;101757.25;5032948;28;19913;-74
2022/03/28 06:01:09;;;;;;;;;;;;;;;10.93;43.18;101751.56;5033124;28;19917;-74
2022/03/28 06:03:54;;;;;;;;;;;;;;;11.92;41.05;101753.13;5032890;28;19913;-74
2022/03/28 06:06:38;;;;;;;;;;;;;;;13.31;38.20;101759.09;5038339;28;19913;-74
2022/03/28 06:09:23;;;;;;;;;;;;;;;14.55;35.67;101754.63;5032728;28;19913;-73
2022/03/28 06:12:08;;;;;;;;;;;;;;;15.48;33.74;101757.88;5018329;28;19917;-67
2022/03/28 06:14:52;;;;;;;;;;;;;;;16.53;31.83;101757.34;5032798;28;19913;-69
2022/03/28 06:17:37;;;;;;;;;;;;;;;17.18;30.61;101758.78;5032659;28;19913;-69
2022/03/28 06:20:21;;;;;;;;;;;;;;;17.64;29.96;101766.84;5032616;28;20359;-69
2022/03/28 06:23:06;;;;;;;;;;;;;;;18.03;29.43;101767.47;5032961;28;19913;-69
2022/03/28 06:25:50;;;;;;;;;;;;;;;18.33;28.87;101761.47;5032629;28;19913;-69
2022/03/28 06:28:35;;;;;;;;;;;;;;;18.92;28.22;101761.03;5032456;28;19913;-69
2022/03/28 06:31:19;;;;;;;;;;;;;;;19.77;26.95;101763.59;5032446;28;19918;-68
2022/03/28 06:34:04;;;;;;;;;;;;;;;20.31;26.53;101766.69;5032531;28;20275;-68
2022/03/28 06:36:48;;;;;;;;;;;;;;;20.46;26.43;101765.06;5032554;28;19916;-69
2022/03/28 06:39:34;;;;;;;;;;;;;;;21.68;24.87;101761.94;5032595;28;19913;-69
2022/03/28 06:42:18;;;;;;;;;;;;;;;22.16;24.03;101769.63;5032495;28;19913;-71
2022/03/28 06:45:03;;;;;;;;;;;;;;;22.39;23.50;101777.16;5024030;28;19912;-69
2022/03/28 06:47:51;;;;;;;;;;;;;;;23.44;21.50;101772.44;5032122;28;19928;-67
2022/03/28 06:50:35;;;;;;;;;;;;;;;23.28;21.52;101771.81;5032350;28;19913;-69
2022/03/28 06:53:19;;;;;;;;;;;;;;;24.13;21.03;101777.59;5032238;28;19940;-69
2022/03/28 06:56:04;;;;;;;;;;;;;;;24.72;20.16;101779.38;5032316;28;19913;-70
2022/03/28 06:58:49;;;;;;;;;;;;;;;24.51;20.07;101781.97;5032221;28;19913;-69
2022/03/28 07:01:33;;;;;;;;;;;;;;;24.15;21.23;101778.84;5032385;28;19913;-69
2022/03/28 07:04:20;;;;;;;;;;;;;;;26.90;17.34;101786.16;5032331;28;19913;-69
2022/03/28 07:07:05;;;;;;;;;;;;;;;27.60;16.87;101781.56;5022072;28;19913;-69
2022/03/28 07:09:49;;;;;;;;;;;;;;;28.65;15.79;101786.94;5032173;28;19917;-69
2022/03/28 07:12:34;;;;;;;;;;;;;;;29.03;15.13;101776.56;5022316;28;19917;-69
2022/03/28 07:15:18;;;;;;;;;;;;;;;29.08;15.20;101785.31;5012347;28;19914;-69
2022/03/28 07:18:06;;;;;;;;;;;;;;;29.30;15.22;101774.69;5032031;28;20380;-69
2022/03/28 07:20:51;;;;;;;;;;;;;;;26.82;17.29;101782.53;5031178;28;19913;-68
2022/03/28 07:23:35;;;;;;;;;;;;;;;26.87;17.07;101772.97;5031838;28;19913;-69
2022/03/28 07:26:20;;;;;;;;;;;;;;;27.37;17.31;101772.88;5037757;28;19916;-69
2022/03/28 07:29:05;;;;;;;;;;;;;;;28.03;16.33;101782.16;5032041;28;19912;-68
2022/03/28 07:31:49;;;;;;;;;;;;;;;27.17;17.20;101787.28;5031160;28;19921;-69
2022/03/28 07:34:35;;;;;;;;;;;;;;;27.11;16.69;101788.09;5035050;28;19913;-69
2022/03/28 07:37:19;;;;;;;;;;;;;;;28.72;14.79;101782.09;5035757;28;19925;-69
2022/03/28 07:40:08;;;;;;;;;;;;;;;26.85;17.20;101792.09;5035660;28;19912;-69
2022/03/28 07:42:53;;;;;;;;;;;;;;;27.61;16.96;101788.78;5035347;28;20280;-69
2022/03/28 07:45:38;;;;;;;;;;;;;;;25.89;17.41;101780.03;5035490;28;19913;-69
2022/03/28 07:48:23;;;;;;;;;;;;;;;24.66;18.03;101770.59;5035524;28;19913;-69
2022/03/28 07:51:07;;;;;;;;;;;;;;;27.85;15.04;101776.66;5035418;28;19913;-69
2022/03/28 07:53:54;;;;;;;;;;;;;;;29.77;13.24;101776.50;5035284;28;19917;-69
2022/03/28 07:56:39;;;;;;;;;;;;;;;25.87;16.21;101772.06;5035347;28;19913;-69
2022/03/28 07:59:24;;;;;;;;;;;;;;;26.70;15.39;101774.56;5035127;28;19913;-70
2022/03/28 08:02:10;;;;;;;;;;;;;;;27.97;15.01;101770.59;5040680;28;19912;-69
2022/03/28 08:04:54;;;;;;;;;;;;;;;27.48;15.84;101774.41;5034524;28;19913;-69
2022/03/28 08:07:39;;;;;;;;;;;;;;;29.77;13.67;101770.88;5033996;28;19913;-69
2022/03/28 08:10:24;;;;;;;;;;;;;;;29.71;14.09;101766.97;5035079;28;19912;-70
2022/03/28 08:13:09;;;;;;;;;;;;;;;31.15;12.16;101772.69;5034613;28;20376;-69
2022/03/28 08:15:53;;;;;;;;;;;;;;;32.60;11.39;101770.25;5035084;28;20372;-70
2022/03/28 08:18:39;;;;;;;;;;;;;;;31.84;11.80;101766.03;5034768;28;19915;-70
2022/03/28 08:21:25;;;;;;;;;;;;;;;31.44;12.56;101774.50;5015105;28;19913;-70
2022/03/28 08:24:10;;;;;;;;;;;;;;;29.10;14.33;101770.91;5020670;28;19917;-70
2022/03/28 08:26:55;;;;;;;;;;;;;;;31.50;12.37;101768.34;5014866;28;19917;-69
2022/03/28 08:29:40;;;;;;;;;;;;;;;29.31;13.96;101759.47;5043041;28;19916;-70
2022/03/28 08:32:24;;;;;;;;;;;;;;;31.69;12.05;101765.56;5054315;28;19916;-70
2022/03/28 08:35:09;;;;;;;;;;;;;;;28.64;12.83;101763.75;5055037;28;19912;-70
2022/03/28 08:37:54;;;;;;;;;;;;;;;31.96;11.45;101768.16;5054344;28;20287;-70
2022/03/28 08:40:42;;;;;;;;;;;;;;;32.84;11.12;101768.03;5054476;28;19913;-70
2022/03/28 08:43:27;;;;;;;;;;;;;;;32.90;11.13;101760.63;5054248;28;19913;-70
2022/03/28 08:46:15;;;;;;;;;;;;;;;32.72;11.44;101763.13;5045813;28;20376;-70
2022/03/28 08:48:59;;;;;;;;;;;;;;;31.28;12.71;101762.41;5059103;28;20391;-71
2022/03/28 08:51:44;;;;;;;;;;;;;;;33.59;11.30;101765.91;5054061;28;19913;-70
2022/03/28 08:54:28;;;;;;;;;;;;;;;31.41;13.22;101769.75;5054200;28;19912;-70
2022/03/28 08:57:13;;;;;;;;;;;;;;;34.53;10.49;101761.31;5053411;28;19913;-70
2022/03/28 08:59:58;;;;;;;;;;;;;;;34.11;11.58;101760.69;5053930;28;19912;-69
2022/03/28 09:02:47;;;;;;;;;;;;;;;35.57;10.15;101764.84;5053976;28;20284;-70
2022/03/28 09:05:34;;;;;;;;;;;;;;;35.87;9.53;101755.59;5045462;28;19913;-70
2022/03/28 09:08:23;;;;;;;;;;;;;;;34.55;10.00;101746.72;5053708;28;19912;-70
2022/03/28 09:11:20;;;;;;;;;;;;;;;33.40;11.05;101748.75;5053898;28;19913;-70
2022/03/28 09:14:05;;;;;;;;;;;;;;;34.39;10.50;101749.72;5053685;28;19916;-70
2022/03/28 09:17:03;;;;;;;;;;;;;;;35.74;9.22;101754.91;5054004;28;20284;-70
2022/03/28 09:19:55;;;;;;;;;;;;;;;37.32;8.32;101748.59;5049345;22;19921;-71
2022/03/28 09:22:41;;;;;;;;;;;;;;;37.03;8.22;101739.78;5050930;28;19917;-72
2022/03/28 09:25:25;;;;;;;;;;;;;;;37.68;7.43;101747.72;5051626;28;19913;-72
2022/03/28 09:28:10;;;;;;;;;;;;;;;37.49;8.06;101740.47;5031389;28;19913;-71
2022/03/28 09:30:55;;;;;;;;;;;;;;;38.84;7.51;101740.25;5039501;28;19912;-71
2022/03/28 09:33:53;;;;;;;;;;;;;;;38.23;7.65;101741.78;5034572;28;19917;-71
2022/03/28 09:36:56;;;;;;;;;;;;;;;36.73;8.37;101725.28;5030640;28;19913;-72
2022/03/28 09:39:41;;;;;;;;;;;;;;;38.16;7.91;101730.75;5035892;28;20307;-72
2022/03/28 09:42:26;;;;;;;;;;;;;;;37.29;7.72;101723.97;5071961;28;19913;-72
2022/03/28 09:45:18;;;;;;;;;;;;;;;38.03;8.09;101726.13;5052476;28;19913;-72
2022/03/28 09:48:06;;;;;;;;;;;;;;;35.03;8.92;101720.00;5026587;28;19912;-73
2022/03/28 09:50:58;;;;;;;;;;;;;;;36.59;8.39;101720.22;5026243;28;19913;-72
2022/03/28 09:53:43;;;;;;;;;;;;;;;38.17;7.48;101721.75;5023189;28;19917;-71
2022/03/28 09:56:28;;;;;;;;;;;;;;;39.01;7.19;101715.78;5020882;28;19914;-72
2022/03/28 09:59:19;;;;;;;;;;;;;;;39.61;6.29;101718.13;5022018;28;19917;-72
2022/03/28 10:02:13;;;;;;;;;;;;;;;39.50;7.29;101711.47;5020898;28;19913;-73
2022/03/28 10:04:58;;;;;;;;;;;;;;;39.78;7.18;101704.16;5032650;28;20295;-73
2022/03/28 10:07:42;;;;;;;;;;;;;;;40.52;6.13;101710.38;5048899;28;19913;-73
2022/03/28 10:10:27;;;;;;;;;;;;;;;38.52;7.00;101690.75;5032615;28;19917;-73
2022/03/28 10:13:13;;;;;;;;;;;;;;;39.04;6.96;101688.41;5051192;28;19921;-72
2022/03/28 10:15:58;;;;;;;;;;;;;;;40.27;6.64;101691.94;5052506;28;19913;-73
2022/03/28 10:18:45;;;;;;;;;;;;;;;41.15;5.65;101682.78;5030135;28;19913;-72
2022/03/28 10:21:32;;;;;;;;;;;;;;;40.15;6.54;101679.56;5037535;28;19917;-73
2022/03/28 10:24:19;;;;;;;;;;;;;;;40.96;5.66;101681.56;5033051;28;19913;-73
2022/03/28 10:27:05;;;;;;;;;;;;;;;41.16;5.46;101672.16;5025734;28;19917;-72
2022/03/28 10:29:52;;;;;;;;;;;;;;;40.54;5.51;101670.72;5053015;28;20511;-72
2022/03/28 10:32:37;;;;;;;;;;;;;;;40.56;5.66;101665.28;5032730;28;19917;-73
2022/03/28 10:35:24;;;;;;;;;;;;;;;41.46;5.16;101664.09;5031691;28;19913;-73
2022/03/28 10:38:16;;;;;;;;;;;;;;;41.76;4.73;101656.78;5033992;28;19917;-74
2022/03/28 10:41:03;;;;;;;;;;;;;;;40.87;5.59;101645.41;5037562;28;19912;-72
2022/03/28 10:43:48;;;;;;;;;;;;;;;41.51;5.83;101647.00;5031058;28;19913;-73
2022/03/28 10:46:35;;;;;;;;;;;;;;;42.71;4.08;101649.41;5031090;28;19913;-75
2022/03/28 10:49:23;;;;;;;;;;;;;;;42.32;3.55;101648.50;5032102;28;19913;-73
2022/03/28 10:52:11;;;;;;;;;;;;;;;42.21;4.96;101646.38;5032105;28;20376;-73
2022/03/28 10:54:55;;;;;;;;;;;;;;;42.78;3.60;101631.72;5031749;28;20344;-73
2022/03/28 10:57:39;;;;;;;;;;;;;;;43.17;4.58;101628.13;5028652;28;19913;-73
2022/03/28 11:00:24;;;;;;;;;;;;;;;42.13;4.59;101628.91;5025388;28;19912;-73
2022/03/28 11:03:08;;;;;;;;;;;;;;;42.96;3.89;101628.38;5029214;28;19917;-73
2022/03/28 11:05:53;;;;;;;;;;;;;;;42.83;4.38;101619.50;5024252;28;19913;-74
2022/03/28 11:08:39;;;;;;;;;;;;;;;43.66;3.92;101617.88;5026007;28;19913;-73
2022/03/28 11:11:31;;;;;;;;;;;;;;;43.05;4.34;101613.78;5024582;28;19917;-73
2022/03/28 11:14:15;;;;;;;;;;;;;;;43.16;4.11;101612.25;5026536;28;19917;-74
2022/03/28 11:17:11;;;;;;;;;;;;;;;42.50;3.85;101603.06;5029729;28;20311;-73
2022/03/28 11:20:00;;;;;;;;;;;;;;;43.14;3.75;101611.97;5024644;28;20315;-73
2022/03/28 11:22:49;;;;;;;;;;;;;;;43.59;3.63;101606.97;5023984;28;19917;-74
2022/03/28 11:25:35;;;;;;;;;;;;;;;44.83;3.21;101603.75;5024561;28;19912;-74
2022/03/28 11:28:25;;;;;;;;;;;;;;;44.59;3.61;101600.78;5029143;28;20391;-73
2022/03/28 11:31:12;;;;;;;;;;;;;;;43.28;3.99;101588.00;5025044;28;19921;-72
2022/03/28 11:33:57;;;;;;;;;;;;;;;43.14;3.78;101586.19;5029629;28;19917;-73
2022/03/28 11:36:42;;;;;;;;;;;;;;;43.55;3.37;101575.72;5027346;28;19913;-74
2022/03/28 11:39:27;;;;;;;;;;;;;;;44.04;3.68;101570.34;5026688;28;19914;-71
2022/03/28 11:42:12;;;;;;;;;;;;;;;43.81;4.13;101567.53;5029680;28;19917;-72
2022/03/28 11:45:04;;;;;;;;;;;;;;;45.22;3.05;101560.31;5030214;28;19913;-72
2022/03/28 11:47:50;;;;;;;;;;;;;;;44.85;3.12;101560.16;5040151;28;20403;-72
2022/03/28 11:50:35;;;;;;;;;;;;;;;44.32;4.39;101548.00;5047602;28;19917;-72
2022/03/28 11:53:20;;;;;;;;;;;;;;;42.37;3.51;101536.19;5046983;28;19921;-71
2022/03/28 11:56:05;;;;;;;;;;;;;;;42.80;4.34;101531.81;5035639;28;19917;-73
2022/03/28 11:58:50;;;;;;;;;;;;;;;42.98;2.72;101528.41;5021402;28;19914;-72
2022/03/28 12:01:36;;;;;;;;;;;;;;;42.68;3.74;101524.53;5022713;28;19917;-72
2022/03/28 12:04:21;;;;;;;;;;;;;;;42.09;3.17;101519.75;5023099;28;19917;-73
2022/03/28 12:07:06;;;;;;;;;;;;;;;42.68;4.61;101515.94;5025020;28;19913;-73
2022/03/28 12:09:52;;;;;;;;;;;;;;;42.23;4.14;101513.00;5041622;28;20377;-71
2022/03/28 12:12:36;;;;;;;;;;;;;;;41.19;3.01;101505.56;5022985;28;19917;-73
2022/03/28 12:15:25;;;;;;;;;;;;;;;41.37;3.67;101500.22;5022855;28;19913;-71
2022/03/28 12:18:10;;;;;;;;;;;;;;;41.41;3.78;101488.53;5027551;28;19966;-72
2022/03/28 12:20:56;;;;;;;;;;;;;;;41.91;4.21;101491.63;5029131;28;19917;-72
2022/03/28 12:23:41;;;;;;;;;;;;;;;41.33;4.62;101499.66;5046214;28;19913;-72
2022/03/28 12:26:25;;;;;;;;;;;;;;;42.04;4.27;101485.44;5026975;28;19917;-71
2022/03/28 12:29:11;;;;;;;;;;;;;;;41.34;5.03;101471.91;5023110;28;19912;-72
2022/03/28 12:31:56;;;;;;;;;;;;;;;39.61;5.29;101461.81;5025619;28;19920;-72
2022/03/28 12:34:40;;;;;;;;;;;;;;;40.20;5.43;101455.75;5026005;28;19925;-73
2022/03/28 12:37:26;;;;;;;;;;;;;;;40.27;5.58;101455.28;5026228;28;19917;-72
2022/03/28 12:40:11;;;;;;;;;;;;;;;41.13;4.75;101461.94;5024434;28;19913;-72
2022/03/28 12:42:56;;;;;;;;;;;;;;;40.91;5.43;101451.91;5028435;28;19913;-72
2022/03/28 12:45:42;;;;;;;;;;;;;;;39.44;4.98;101442.94;5023626;28;20365;-71
2022/03/28 12:48:58;;;;;;;;;;;;;;;39.71;5.42;101443.28;5022821;28;19913;-71
2022/03/28 12:51:45;;;;;;;;;;;;;;;40.10;4.75;101428.66;5018867;28;19914;-72
2022/03/28 12:54:31;;;;;;;;;;;;;;;39.34;5.75;101426.00;5026046;28;19929;-70
2022/03/28 12:57:22;;;;;;;;;;;;;;;39.39;4.78;101413.13;5039479;28;19921;-71
2022/03/28 13:00:09;;;;;;;;;;;;;;;38.57;6.17;101416.31;5024422;28;19913;-73
2022/03/28 13:02:54;;;;;;;;;;;;;;;38.05;6.24;101408.19;5029154;28;19912;-72
2022/03/28 13:05:38;;;;;;;;;;;;;;;36.55;7.10;101390.00;5025690;28;19913;-70
2022/03/28 13:08:32;;;;;;;;;;;;;;;36.16;7.94;101398.34;5026506;28;19913;-71
2022/03/28 13:11:18;;;;;;;;;;;;;;;35.99;6.28;101394.25;5025184;28;19913;-70
2022/03/28 13:14:04;;;;;;;;;;;;;;;35.70;7.26;101391.94;5027672;28;19925;-71
2022/03/28 13:16:48;;;;;;;;;;;;;;;34.85;8.79;101383.44;5030390;28;19921;-71
2022/03/28 13:19:35;;;;;;;;;;;;;;;34.17;8.54;101376.84;5026000;28;19912;-71
2022/03/28 13:22:25;;;;;;;;;;;;;;;33.71;9.31;101379.38;5023711;28;20372;-71
2022/03/28 13:25:11;;;;;;;;;;;;;;;33.92;7.89;101366.53;5044660;28;19922;-70
2022/03/28 13:28:08;;;;;;;;;;;;;;;33.44;7.80;101350.91;5022060;28;19913;-72
2022/03/28 13:30:56;;;;;;;;;;;;;;;34.00;8.29;101341.63;5025949;28;19913;-70
2022/03/28 13:33:41;;;;;;;;;;;;;;;33.73;9.38;101353.53;5021995;28;19921;-70
2022/03/28 13:36:25;;;;;;;;;;;;;;;32.31;9.11;101343.41;5022494;28;20372;-71
2022/03/28 13:39:10;;;;;;;;;;;;;;;32.60;10.18;101332.84;5021556;28;20272;-71
2022/03/28 13:41:55;;;;;;;;;;;;;;;32.46;9.87;101336.13;5026754;28;19913;-71
2022/03/28 13:44:39;;;;;;;;;;;;;;;31.66;10.61;101335.28;5025351;28;19913;-71
2022/03/28 13:47:24;;;;;;;;;;;;;;;30.08;10.03;101321.97;5030144;28;19912;-70
2022/03/28 13:50:09;;;;;;;;;;;;;;;30.07;11.81;101320.41;5022406;28;20419;-71
2022/03/28 13:52:56;;;;;;;;;;;;;;;28.55;11.72;101314.81;5028918;28;20292;-71
2022/03/28 13:55:40;;;;;;;;;;;;;;;28.21;11.82;101312.09;5023453;28;19913;-71
2022/03/28 13:58:25;;;;;;;;;;;;;;;27.12;12.30;101304.56;5022531;28;19913;-71
2022/03/28 14:01:10;;;;;;;;;;;;;;;27.62;12.70;101301.28;5023946;28;20291;-72
2022/03/28 14:03:55;;;;;;;;;;;;;;;27.14;12.94;101288.19;5026549;28;19913;-72
2022/03/28 14:06:40;;;;;;;;;;;;;;;27.26;13.32;101291.69;5026011;28;19913;-70
2022/03/28 14:09:25;;;;;;;;;;;;;;;26.61;13.18;101283.09;5025495;28;19913;-71
2022/03/28 14:12:09;;;;;;;;;;;;;;;26.37;13.31;101272.88;5022676;28;19912;-70
2022/03/28 14:14:54;;;;;;;;;;;;;;;26.54;13.52;101280.34;5024006;28;19917;-71
2022/03/28 14:17:39;;;;;;;;;;;;;;;27.01;12.31;101273.19;5023619;28;19913;-70